sensor_id;sensor_type;location;lat;lon;timestamp;temperature;humidity
74934;DHT22;63499;53.232;7.492;2023-02-28T00:00:01;4.50;99.90
74934;DHT22;63499;53.232;7.492;2023-02-28T00:02:41;4.50;99.90
74934;DHT22;63499;53.232;7.492;2023-02-28T00:05:09;4.50;99.90
74934;DHT22;63499;53.232;7.492;2023-02-28T00:07:38;4.50;99.90
74934;DHT22;63499;53.232;7.492;2023-02-28T00:10:05;4.50;99.90
74934;DHT22;63499;53.232;7.492;2023-02-28T00:12:33;4.50;99.90
74934;DHT22;63499;53.232;7.492;2023-02-28T00:15:00;4.50;99.90
74934;DHT22;63499;53.232;7.492;2023-02-28T00:17:26;4.50;99.90
74934;DHT22;63499;53.232;7.492;2023-02-28T00:19:52;4.50;99.90
74934;DHT22;63499;53.232;7.492;2023-02-28T00:22:19;4.50;99.90
74934;DHT22;63499;53.232;7.492;2023-02-28T00:24:45;4.50;99.90
74934;DHT22;63499;53.232;7.492;2023-02-28T00:27:13;4.40;99.90
74934;DHT22;63499;53.232;7.492;2023-02-28T00:29:41;4.40;99.90
74934;DHT22;63499;53.232;7.492;2023-02-28T00:32:10;4.50;99.90
74934;DHT22;63499;53.232;7.492;2023-02-28T00:34:37;4.40;99.90
74934;DHT22;63499;53.232;7.492;2023-02-28T00:37:04;4.40;99.90
74934;DHT22;63499;53.232;7.492;2023-02-28T00:39:35;4.40;99.90
74934;DHT22;63499;53.232;7.492;2023-02-28T00:42:02;4.40;99.90
74934;DHT22;63499;53.232;7.492;2023-02-28T00:44:29;4.40;99.90
74934;DHT22;63499;53.232;7.492;2023-02-28T00:46:56;4.40;99.90
74934;DHT22;63499;53.232;7.492;2023-02-28T00:49:24;4.40;99.90
74934;DHT22;63499;53.232;7.492;2023-02-28T00:51:52;4.40;99.90
74934;DHT22;63499;53.232;7.492;2023-02-28T00:54:19;4.40;99.90
74934;DHT22;63499;53.232;7.492;2023-02-28T00:56:49;4.40;99.90
74934;DHT22;63499;53.232;7.492;2023-02-28T00:59:16;4.40;99.90
74934;DHT22;63499;53.232;7.492;2023-02-28T01:01:44;4.40;99.90
74934;DHT22;63499;53.232;7.492;2023-02-28T01:04:10;4.40;99.90
74934;DHT22;63499;53.232;7.492;2023-02-28T01:06:37;4.40;99.90
74934;DHT22;63499;53.232;7.492;2023-02-28T01:09:04;4.40;99.90
74934;DHT22;63499;53.232;7.492;2023-02-28T01:11:31;4.40;99.90
74934;DHT22;63499;53.232;7.492;2023-02-28T01:13:58;4.30;99.90
74934;DHT22;63499;53.232;7.492;2023-02-28T01:16:24;4.30;99.90
74934;DHT22;63499;53.232;7.492;2023-02-28T01:18:50;4.30;99.90
74934;DHT22;63499;53.232;7.492;2023-02-28T01:21:17;4.30;99.90
74934;DHT22;63499;53.232;7.492;2023-02-28T01:23:44;4.30;99.90
74934;DHT22;63499;53.232;7.492;2023-02-28T01:26:21;4.30;99.90
74934;DHT22;63499;53.232;7.492;2023-02-28T01:28:49;4.30;99.90
74934;DHT22;63499;53.232;7.492;2023-02-28T01:31:15;4.30;99.90
74934;DHT22;63499;53.232;7.492;2023-02-28T01:33:41;4.30;99.90
74934;DHT22;63499;53.232;7.492;2023-02-28T01:36:12;4.30;99.90
74934;DHT22;63499;53.232;7.492;2023-02-28T01:38:38;4.30;99.90
74934;DHT22;63499;53.232;7.492;2023-02-28T01:41:06;4.20;99.90
74934;DHT22;63499;53.232;7.492;2023-02-28T01:43:52;4.20;99.90
74934;DHT22;63499;53.232;7.492;2023-02-28T01:46:19;4.20;99.90
74934;DHT22;63499;53.232;7.492;2023-02-28T01:48:56;4.20;99.90
74934;DHT22;63499;53.232;7.492;2023-02-28T01:51:29;4.20;99.90
74934;DHT22;63499;53.232;7.492;2023-02-28T01:53:59;4.20;99.90
74934;DHT22;63499;53.232;7.492;2023-02-28T01:56:29;4.20;99.90
74934;DHT22;63499;53.232;7.492;2023-02-28T01:58:56;4.10;99.90
74934;DHT22;63499;53.232;7.492;2023-02-28T02:01:22;4.10;99.90
74934;DHT22;63499;53.232;7.492;2023-02-28T02:03:50;4.10;99.90
74934;DHT22;63499;53.232;7.492;2023-02-28T02:09:19;4.10;99.90
74934;DHT22;63499;53.232;7.492;2023-02-28T02:11:45;4.10;99.90
74934;DHT22;63499;53.232;7.492;2023-02-28T02:27:02;4.20;99.90
74934;DHT22;63499;53.232;7.492;2023-02-28T02:39:50;4.20;99.90
74934;DHT22;63499;53.232;7.492;2023-02-28T02:42:22;4.10;99.90
74934;DHT22;63499;53.232;7.492;2023-02-28T02:44:51;4.10;99.90
74934;DHT22;63499;53.232;7.492;2023-02-28T02:47:20;4.10;99.90
74934;DHT22;63499;53.232;7.492;2023-02-28T02:49:51;4.10;99.90
74934;DHT22;63499;53.232;7.492;2023-02-28T02:52:18;4.20;99.90
74934;DHT22;63499;53.232;7.492;2023-02-28T02:54:47;4.10;99.90
74934;DHT22;63499;53.232;7.492;2023-02-28T02:57:18;4.20;99.90
74934;DHT22;63499;53.232;7.492;2023-02-28T02:59:47;4.10;99.90
74934;DHT22;63499;53.232;7.492;2023-02-28T03:02:19;4.10;99.90
74934;DHT22;63499;53.232;7.492;2023-02-28T03:04:48;4.10;99.90
74934;DHT22;63499;53.232;7.492;2023-02-28T03:07:16;4.10;99.90
74934;DHT22;63499;53.232;7.492;2023-02-28T03:09:50;4.10;99.90
74934;DHT22;63499;53.232;7.492;2023-02-28T03:12:16;4.10;99.90
74934;DHT22;63499;53.232;7.492;2023-02-28T03:17:24;4.10;99.90
74934;DHT22;63499;53.232;7.492;2023-02-28T03:22:38;4.10;99.90
74934;DHT22;63499;53.232;7.492;2023-02-28T03:27:39;4.10;99.90
74934;DHT22;63499;53.232;7.492;2023-02-28T03:30:15;4.10;99.90
74934;DHT22;63499;53.232;7.492;2023-02-28T03:32:50;4.10;99.90
74934;DHT22;63499;53.232;7.492;2023-02-28T03:35:20;4.10;99.90
74934;DHT22;63499;53.232;7.492;2023-02-28T03:37:48;4.10;99.90
74934;DHT22;63499;53.232;7.492;2023-02-28T03:40:20;4.10;99.90
74934;DHT22;63499;53.232;7.492;2023-02-28T03:42:47;4.20;99.90
74934;DHT22;63499;53.232;7.492;2023-02-28T03:45:16;4.10;99.90
74934;DHT22;63499;53.232;7.492;2023-02-28T03:50:17;4.10;99.90
74934;DHT22;63499;53.232;7.492;2023-02-28T03:52:47;4.10;99.90
74934;DHT22;63499;53.232;7.492;2023-02-28T03:55:14;4.10;99.90
74934;DHT22;63499;53.232;7.492;2023-02-28T04:00:27;4.10;99.90
74934;DHT22;63499;53.232;7.492;2023-02-28T04:02:54;4.10;99.90
74934;DHT22;63499;53.232;7.492;2023-02-28T04:05:21;4.10;99.90
74934;DHT22;63499;53.232;7.492;2023-02-28T04:07:48;4.10;99.90
74934;DHT22;63499;53.232;7.492;2023-02-28T04:10:14;4.10;99.90
74934;DHT22;63499;53.232;7.492;2023-02-28T04:12:41;4.10;99.90
74934;DHT22;63499;53.232;7.492;2023-02-28T04:15:08;4.10;99.90
74934;DHT22;63499;53.232;7.492;2023-02-28T04:17:34;4.10;99.90
74934;DHT22;63499;53.232;7.492;2023-02-28T04:20:00;4.10;99.90
74934;DHT22;63499;53.232;7.492;2023-02-28T04:22:26;4.10;99.90
74934;DHT22;63499;53.232;7.492;2023-02-28T04:24:52;4.10;99.90
74934;DHT22;63499;53.232;7.492;2023-02-28T04:27:20;4.10;99.90
74934;DHT22;63499;53.232;7.492;2023-02-28T04:29:46;4.00;99.90
74934;DHT22;63499;53.232;7.492;2023-02-28T04:32:12;4.00;99.90
74934;DHT22;63499;53.232;7.492;2023-02-28T04:34:39;4.00;99.90
74934;DHT22;63499;53.232;7.492;2023-02-28T04:37:05;4.10;99.90
74934;DHT22;63499;53.232;7.492;2023-02-28T04:39:34;4.10;99.90
74934;DHT22;63499;53.232;7.492;2023-02-28T04:42:00;4.10;99.90
74934;DHT22;63499;53.232;7.492;2023-02-28T04:44:26;4.10;99.90
74934;DHT22;63499;53.232;7.492;2023-02-28T04:46:52;4.00;99.90
74934;DHT22;63499;53.232;7.492;2023-02-28T04:49:18;4.00;99.90
74934;DHT22;63499;53.232;7.492;2023-02-28T04:51:44;4.00;99.90
74934;DHT22;63499;53.232;7.492;2023-02-28T04:54:11;4.00;99.90
74934;DHT22;63499;53.232;7.492;2023-02-28T04:56:37;4.00;99.90
74934;DHT22;63499;53.232;7.492;2023-02-28T04:59:03;4.10;99.90
74934;DHT22;63499;53.232;7.492;2023-02-28T05:01:31;4.00;99.90
74934;DHT22;63499;53.232;7.492;2023-02-28T05:03:58;3.90;99.90
74934;DHT22;63499;53.232;7.492;2023-02-28T05:06:26;4.00;99.90
74934;DHT22;63499;53.232;7.492;2023-02-28T05:08:52;3.90;99.90
74934;DHT22;63499;53.232;7.492;2023-02-28T05:13:45;4.00;99.90
74934;DHT22;63499;53.232;7.492;2023-02-28T05:16:10;4.00;99.90
74934;DHT22;63499;53.232;7.492;2023-02-28T05:18:37;4.00;99.90
74934;DHT22;63499;53.232;7.492;2023-02-28T05:21:03;4.00;99.90
74934;DHT22;63499;53.232;7.492;2023-02-28T05:23:29;3.90;99.90
74934;DHT22;63499;53.232;7.492;2023-02-28T05:25:58;3.90;99.90
74934;DHT22;63499;53.232;7.492;2023-02-28T05:28:24;3.90;99.90
74934;DHT22;63499;53.232;7.492;2023-02-28T05:30:50;3.90;99.90
74934;DHT22;63499;53.232;7.492;2023-02-28T05:33:16;3.90;99.90
74934;DHT22;63499;53.232;7.492;2023-02-28T05:35:42;3.90;99.90
74934;DHT22;63499;53.232;7.492;2023-02-28T05:38:08;3.90;99.90
74934;DHT22;63499;53.232;7.492;2023-02-28T05:40:35;3.90;99.90
74934;DHT22;63499;53.232;7.492;2023-02-28T05:43:03;3.90;99.90
74934;DHT22;63499;53.232;7.492;2023-02-28T05:45:30;3.90;99.90
74934;DHT22;63499;53.232;7.492;2023-02-28T05:47:56;3.90;99.90
74934;DHT22;63499;53.232;7.492;2023-02-28T05:50:24;3.90;99.90
74934;DHT22;63499;53.232;7.492;2023-02-28T05:52:50;3.90;99.90
74934;DHT22;63499;53.232;7.492;2023-02-28T05:55:17;3.90;99.90
74934;DHT22;63499;53.232;7.492;2023-02-28T05:57:47;3.90;99.90
74934;DHT22;63499;53.232;7.492;2023-02-28T06:00:13;3.90;99.90
74934;DHT22;63499;53.232;7.492;2023-02-28T06:02:41;3.90;99.90
74934;DHT22;63499;53.232;7.492;2023-02-28T06:05:10;3.90;99.90
74934;DHT22;63499;53.232;7.492;2023-02-28T06:07:38;3.90;99.90
74934;DHT22;63499;53.232;7.492;2023-02-28T06:10:04;3.90;99.90
74934;DHT22;63499;53.232;7.492;2023-02-28T06:12:31;3.90;99.90
74934;DHT22;63499;53.232;7.492;2023-02-28T06:14:57;3.80;99.90
74934;DHT22;63499;53.232;7.492;2023-02-28T06:17:23;3.80;99.90
74934;DHT22;63499;53.232;7.492;2023-02-28T06:19:49;3.80;99.90
74934;DHT22;63499;53.232;7.492;2023-02-28T06:22:15;3.80;99.90
74934;DHT22;63499;53.232;7.492;2023-02-28T06:24:41;3.80;99.90
74934;DHT22;63499;53.232;7.492;2023-02-28T06:27:08;3.80;99.90
74934;DHT22;63499;53.232;7.492;2023-02-28T06:29:34;3.80;99.90
74934;DHT22;63499;53.232;7.492;2023-02-28T06:32:01;3.80;99.90
74934;DHT22;63499;53.232;7.492;2023-02-28T06:34:27;3.80;99.90
74934;DHT22;63499;53.232;7.492;2023-02-28T06:36:53;3.80;99.90
74934;DHT22;63499;53.232;7.492;2023-02-28T06:39:20;3.80;99.90
74934;DHT22;63499;53.232;7.492;2023-02-28T06:41:46;3.80;99.90
74934;DHT22;63499;53.232;7.492;2023-02-28T06:44:14;3.80;99.90
74934;DHT22;63499;53.232;7.492;2023-02-28T06:46:44;3.80;99.90
74934;DHT22;63499;53.232;7.492;2023-02-28T06:49:11;3.80;99.90
74934;DHT22;63499;53.232;7.492;2023-02-28T06:51:39;3.80;99.90
74934;DHT22;63499;53.232;7.492;2023-02-28T06:54:05;3.70;99.90
74934;DHT22;63499;53.232;7.492;2023-02-28T06:56:34;3.70;99.90
74934;DHT22;63499;53.232;7.492;2023-02-28T06:59:01;3.70;99.90
74934;DHT22;63499;53.232;7.492;2023-02-28T07:01:27;3.70;99.90
74934;DHT22;63499;53.232;7.492;2023-02-28T07:03:53;3.70;99.90
74934;DHT22;63499;53.232;7.492;2023-02-28T07:06:23;3.80;99.90
74934;DHT22;63499;53.232;7.492;2023-02-28T07:08:50;3.80;99.90
74934;DHT22;63499;53.232;7.492;2023-02-28T07:11:20;3.80;99.90
74934;DHT22;63499;53.232;7.492;2023-02-28T07:13:49;3.80;99.90
74934;DHT22;63499;53.232;7.492;2023-02-28T07:16:15;3.80;99.90
74934;DHT22;63499;53.232;7.492;2023-02-28T07:18:41;3.70;99.90
74934;DHT22;63499;53.232;7.492;2023-02-28T07:21:08;3.70;99.90
74934;DHT22;63499;53.232;7.492;2023-02-28T07:23:34;3.70;99.90
74934;DHT22;63499;53.232;7.492;2023-02-28T07:26:01;3.70;99.90
74934;DHT22;63499;53.232;7.492;2023-02-28T07:28:27;3.70;99.90
74934;DHT22;63499;53.232;7.492;2023-02-28T07:30:53;3.70;99.90
74934;DHT22;63499;53.232;7.492;2023-02-28T07:33:20;3.60;99.90
74934;DHT22;63499;53.232;7.492;2023-02-28T07:35:47;3.70;99.90
74934;DHT22;63499;53.232;7.492;2023-02-28T07:38:13;3.70;99.90
74934;DHT22;63499;53.232;7.492;2023-02-28T07:40:40;3.70;99.90
74934;DHT22;63499;53.232;7.492;2023-02-28T07:43:06;3.70;99.90
74934;DHT22;63499;53.232;7.492;2023-02-28T07:45:32;3.80;99.90
74934;DHT22;63499;53.232;7.492;2023-02-28T07:48:00;3.90;99.90
74934;DHT22;63499;53.232;7.492;2023-02-28T07:50:27;3.90;99.90
74934;DHT22;63499;53.232;7.492;2023-02-28T07:53:00;4.00;99.90
74934;DHT22;63499;53.232;7.492;2023-02-28T07:55:26;4.00;99.90
74934;DHT22;63499;53.232;7.492;2023-02-28T07:57:52;4.00;99.90
74934;DHT22;63499;53.232;7.492;2023-02-28T08:00:18;4.00;99.90
74934;DHT22;63499;53.232;7.492;2023-02-28T08:02:44;4.10;99.90
74934;DHT22;63499;53.232;7.492;2023-02-28T08:05:10;4.10;99.90
74934;DHT22;63499;53.232;7.492;2023-02-28T08:07:36;4.00;99.90
74934;DHT22;63499;53.232;7.492;2023-02-28T08:10:03;4.00;99.90
74934;DHT22;63499;53.232;7.492;2023-02-28T08:12:31;3.90;99.90
74934;DHT22;63499;53.232;7.492;2023-02-28T08:14:57;3.90;99.90
74934;DHT22;63499;53.232;7.492;2023-02-28T08:17:23;3.90;99.90
74934;DHT22;63499;53.232;7.492;2023-02-28T08:19:49;3.90;99.90
74934;DHT22;63499;53.232;7.492;2023-02-28T08:22:15;4.00;99.90
74934;DHT22;63499;53.232;7.492;2023-02-28T08:24:41;4.10;99.90
74934;DHT22;63499;53.232;7.492;2023-02-28T08:27:09;4.10;99.90
74934;DHT22;63499;53.232;7.492;2023-02-28T08:29:38;4.20;99.90
74934;DHT22;63499;53.232;7.492;2023-02-28T08:32:04;4.40;99.90
74934;DHT22;63499;53.232;7.492;2023-02-28T08:34:31;4.50;99.90
74934;DHT22;63499;53.232;7.492;2023-02-28T08:36:57;4.60;99.90
74934;DHT22;63499;53.232;7.492;2023-02-28T08:39:23;4.70;99.90
74934;DHT22;63499;53.232;7.492;2023-02-28T08:41:49;4.80;99.90
74934;DHT22;63499;53.232;7.492;2023-02-28T08:44:15;4.90;99.90
74934;DHT22;63499;53.232;7.492;2023-02-28T08:46:41;5.00;99.90
74934;DHT22;63499;53.232;7.492;2023-02-28T08:49:09;5.00;99.90
74934;DHT22;63499;53.232;7.492;2023-02-28T08:51:36;5.00;99.90
74934;DHT22;63499;53.232;7.492;2023-02-28T08:54:02;4.90;99.90
74934;DHT22;63499;53.232;7.492;2023-02-28T08:56:28;4.80;99.90
74934;DHT22;63499;53.232;7.492;2023-02-28T08:58:55;4.70;99.90
74934;DHT22;63499;53.232;7.492;2023-02-28T09:01:22;4.60;99.90
74934;DHT22;63499;53.232;7.492;2023-02-28T09:03:49;4.60;99.90
74934;DHT22;63499;53.232;7.492;2023-02-28T09:06:17;4.60;99.90
74934;DHT22;63499;53.232;7.492;2023-02-28T09:08:44;4.60;99.90
74934;DHT22;63499;53.232;7.492;2023-02-28T09:11:10;4.80;99.90
74934;DHT22;63499;53.232;7.492;2023-02-28T09:13:36;5.00;99.90
74934;DHT22;63499;53.232;7.492;2023-02-28T09:16:04;5.20;99.90
74934;DHT22;63499;53.232;7.492;2023-02-28T09:18:30;5.50;99.90
74934;DHT22;63499;53.232;7.492;2023-02-28T09:20:56;5.70;99.90
74934;DHT22;63499;53.232;7.492;2023-02-28T09:23:23;5.70;99.90
74934;DHT22;63499;53.232;7.492;2023-02-28T09:25:50;5.80;99.90
74934;DHT22;63499;53.232;7.492;2023-02-28T09:28:17;6.00;99.90
74934;DHT22;63499;53.232;7.492;2023-02-28T09:30:44;6.10;99.90
74934;DHT22;63499;53.232;7.492;2023-02-28T09:33:11;6.10;99.90
74934;DHT22;63499;53.232;7.492;2023-02-28T09:35:37;6.30;99.90
74934;DHT22;63499;53.232;7.492;2023-02-28T09:38:03;6.40;99.90
74934;DHT22;63499;53.232;7.492;2023-02-28T09:40:34;6.50;99.90
74934;DHT22;63499;53.232;7.492;2023-02-28T09:43:01;6.60;99.90
74934;DHT22;63499;53.232;7.492;2023-02-28T09:45:32;6.70;99.90
74934;DHT22;63499;53.232;7.492;2023-02-28T09:47:59;6.70;99.90
74934;DHT22;63499;53.232;7.492;2023-02-28T20:42:47;3.40;99.90
74934;DHT22;63499;53.232;7.492;2023-02-28T20:45:13;3.50;99.90
74934;DHT22;63499;53.232;7.492;2023-02-28T20:47:39;3.40;99.90
74934;DHT22;63499;53.232;7.492;2023-02-28T20:50:07;3.40;99.90
74934;DHT22;63499;53.232;7.492;2023-02-28T20:52:34;3.30;99.90
74934;DHT22;63499;53.232;7.492;2023-02-28T20:55:00;3.30;99.90
74934;DHT22;63499;53.232;7.492;2023-02-28T20:57:28;3.30;99.90
74934;DHT22;63499;53.232;7.492;2023-02-28T20:59:54;3.20;99.90
74934;DHT22;63499;53.232;7.492;2023-02-28T21:02:23;3.20;99.90
74934;DHT22;63499;53.232;7.492;2023-02-28T21:04:51;3.10;99.90
74934;DHT22;63499;53.232;7.492;2023-02-28T21:07:17;3.10;99.90
74934;DHT22;63499;53.232;7.492;2023-02-28T21:09:43;3.10;99.90
74934;DHT22;63499;53.232;7.492;2023-02-28T21:12:09;3.00;99.90
74934;DHT22;63499;53.232;7.492;2023-02-28T21:14:35;3.00;99.90
74934;DHT22;63499;53.232;7.492;2023-02-28T21:17:02;3.00;99.90
74934;DHT22;63499;53.232;7.492;2023-02-28T21:19:28;2.90;99.90
74934;DHT22;63499;53.232;7.492;2023-02-28T21:21:54;2.90;99.90
74934;DHT22;63499;53.232;7.492;2023-02-28T21:24:20;2.80;99.90
74934;DHT22;63499;53.232;7.492;2023-02-28T21:26:47;2.80;99.90
74934;DHT22;63499;53.232;7.492;2023-02-28T21:29:13;2.80;99.90
74934;DHT22;63499;53.232;7.492;2023-02-28T21:31:39;2.70;99.90
74934;DHT22;63499;53.232;7.492;2023-02-28T21:34:10;2.70;99.90
74934;DHT22;63499;53.232;7.492;2023-02-28T21:36:40;2.70;99.90
74934;DHT22;63499;53.232;7.492;2023-02-28T21:39:08;2.60;99.90
74934;DHT22;63499;53.232;7.492;2023-02-28T21:41:36;2.60;99.90
74934;DHT22;63499;53.232;7.492;2023-02-28T21:44:05;2.60;99.90
74934;DHT22;63499;53.232;7.492;2023-02-28T21:46:31;2.60;99.90
74934;DHT22;63499;53.232;7.492;2023-02-28T21:48:57;2.50;99.90
74934;DHT22;63499;53.232;7.492;2023-02-28T21:51:25;2.50;99.90
74934;DHT22;63499;53.232;7.492;2023-02-28T21:53:51;2.50;99.90
74934;DHT22;63499;53.232;7.492;2023-02-28T21:56:20;2.40;99.90
74934;DHT22;63499;53.232;7.492;2023-02-28T21:58:46;2.40;99.90
74934;DHT22;63499;53.232;7.492;2023-02-28T22:01:15;2.40;99.90
74934;DHT22;63499;53.232;7.492;2023-02-28T22:03:41;2.30;99.90
74934;DHT22;63499;53.232;7.492;2023-02-28T22:06:18;2.30;99.90
74934;DHT22;63499;53.232;7.492;2023-02-28T22:08:45;2.30;99.90
74934;DHT22;63499;53.232;7.492;2023-02-28T22:11:12;2.30;99.90
74934;DHT22;63499;53.232;7.492;2023-02-28T22:13:39;2.20;99.90
74934;DHT22;63499;53.232;7.492;2023-02-28T22:16:06;2.20;99.90
74934;DHT22;63499;53.232;7.492;2023-02-28T22:18:33;2.20;99.90
74934;DHT22;63499;53.232;7.492;2023-02-28T22:20:59;2.20;99.90
74934;DHT22;63499;53.232;7.492;2023-02-28T22:23:25;2.20;99.90
74934;DHT22;63499;53.232;7.492;2023-02-28T22:25:52;2.20;99.90
74934;DHT22;63499;53.232;7.492;2023-02-28T22:28:21;2.20;99.90
74934;DHT22;63499;53.232;7.492;2023-02-28T22:30:48;2.20;99.90
74934;DHT22;63499;53.232;7.492;2023-02-28T22:33:16;2.20;99.90
74934;DHT22;63499;53.232;7.492;2023-02-28T22:35:42;2.20;99.90
74934;DHT22;63499;53.232;7.492;2023-02-28T22:38:08;2.20;99.90
74934;DHT22;63499;53.232;7.492;2023-02-28T22:40:35;2.10;99.90
74934;DHT22;63499;53.232;7.492;2023-02-28T22:43:01;2.10;99.90
74934;DHT22;63499;53.232;7.492;2023-02-28T22:45:28;2.10;99.90
74934;DHT22;63499;53.232;7.492;2023-02-28T22:47:54;2.10;99.90
74934;DHT22;63499;53.232;7.492;2023-02-28T22:50:20;2.10;99.90
74934;DHT22;63499;53.232;7.492;2023-02-28T22:52:46;2.00;99.90
74934;DHT22;63499;53.232;7.492;2023-02-28T22:55:12;2.00;99.90
74934;DHT22;63499;53.232;7.492;2023-02-28T22:57:38;1.90;99.90
74934;DHT22;63499;53.232;7.492;2023-02-28T23:00:06;1.90;99.90
74934;DHT22;63499;53.232;7.492;2023-02-28T23:02:34;1.90;99.90
74934;DHT22;63499;53.232;7.492;2023-02-28T23:05:00;1.90;99.90
74934;DHT22;63499;53.232;7.492;2023-02-28T23:07:27;1.90;99.90
74934;DHT22;63499;53.232;7.492;2023-02-28T23:09:53;1.90;99.90
74934;DHT22;63499;53.232;7.492;2023-02-28T23:12:19;1.90;99.90
74934;DHT22;63499;53.232;7.492;2023-02-28T23:14:45;1.90;99.90
74934;DHT22;63499;53.232;7.492;2023-02-28T23:17:11;1.90;99.90
74934;DHT22;63499;53.232;7.492;2023-02-28T23:19:38;1.90;99.90
74934;DHT22;63499;53.232;7.492;2023-02-28T23:22:04;1.90;99.90
74934;DHT22;63499;53.232;7.492;2023-02-28T23:24:32;1.90;99.90
74934;DHT22;63499;53.232;7.492;2023-02-28T23:26:59;1.90;99.90
74934;DHT22;63499;53.232;7.492;2023-02-28T23:29:26;1.80;99.90
74934;DHT22;63499;53.232;7.492;2023-02-28T23:31:52;1.80;99.90
74934;DHT22;63499;53.232;7.492;2023-02-28T23:34:18;1.80;99.90
74934;DHT22;63499;53.232;7.492;2023-02-28T23:36:51;1.70;99.90
74934;DHT22;63499;53.232;7.492;2023-02-28T23:39:18;1.80;99.90
74934;DHT22;63499;53.232;7.492;2023-02-28T23:41:44;1.70;99.90
74934;DHT22;63499;53.232;7.492;2023-02-28T23:44:10;1.70;99.90
74934;DHT22;63499;53.232;7.492;2023-02-28T23:46:42;1.70;99.90
74934;DHT22;63499;53.232;7.492;2023-02-28T23:49:09;1.70;99.90
74934;DHT22;63499;53.232;7.492;2023-02-28T23:51:35;1.60;99.90
74934;DHT22;63499;53.232;7.492;2023-02-28T23:54:01;1.70;99.90
74934;DHT22;63499;53.232;7.492;2023-02-28T23:56:28;1.70;99.90
74934;DHT22;63499;53.232;7.492;2023-02-28T23:58:55;1.70;99.90
